createdAt,value
2018-06-27T00:01:02.133Z,68.07
2018-06-27T00:03:32.783Z,67.60
2018-06-27T00:06:03.276Z,66.67
2018-06-27T00:08:33.971Z,67.63
2018-06-27T00:11:04.667Z,72.33
2018-06-27T00:13:35.144Z,71.57
2018-06-27T00:16:06.277Z,71.83
2018-06-27T00:18:37.093Z,66.17
2018-06-27T00:21:07.817Z,69.20
2018-06-27T00:23:38.376Z,61.17
2018-06-27T00:26:08.960Z,58.93
2018-06-27T00:28:39.702Z,56.87
2018-06-27T00:31:10.489Z,57.07
2018-06-27T00:33:40.956Z,54.20
2018-06-27T00:36:11.698Z,53.53
2018-06-27T00:38:42.364Z,52.70
2018-06-27T00:41:13.266Z,51.47
2018-06-27T00:43:43.296Z,51.77
2018-06-27T00:46:13.831Z,53.03
2018-06-27T00:48:44.245Z,52.13
2018-06-27T00:51:14.957Z,52.90
2018-06-27T00:53:50.557Z,52.23
2018-06-27T00:56:21.202Z,51.53
2018-06-27T00:58:52.004Z,51.83
2018-06-27T01:01:22.615Z,53.47
2018-06-27T01:03:53.114Z,54.23
2018-06-27T01:06:23.691Z,54.33
2018-06-27T01:08:53.792Z,53.77
2018-06-27T01:11:24.571Z,53.87
2018-06-27T01:13:55.108Z,55.37
2018-06-27T01:16:25.884Z,56.70
2018-06-27T01:18:56.349Z,56.57
2018-06-27T01:21:26.988Z,55.30
2018-06-27T01:23:56.824Z,56.50
2018-06-27T01:26:27.557Z,56.07
2018-06-27T01:28:58.001Z,55.73
2018-06-27T01:31:27.862Z,53.83
2018-06-27T01:33:58.006Z,53.40
2018-06-27T01:36:28.885Z,52.20
2018-06-27T01:38:58.710Z,54.13
2018-06-27T01:41:29.201Z,52.33
2018-06-27T01:43:59.985Z,54.33
2018-06-27T01:46:29.938Z,54.17
2018-06-27T01:49:00.375Z,52.00
2018-06-27T01:51:30.307Z,52.63
2018-06-27T01:54:00.752Z,54.13
2018-06-27T01:56:31.221Z,51.10
2018-06-27T01:59:01.938Z,50.73
2018-06-27T02:01:32.879Z,52.03
2018-06-27T02:04:03.105Z,49.97
2018-06-27T02:06:34.061Z,49.13
2018-06-27T02:09:06.838Z,47.23
2018-06-27T02:11:37.678Z,44.53
2018-06-27T02:14:08.891Z,44.50
2018-06-27T02:16:39.505Z,45.10
2018-06-27T02:19:10.059Z,43.80
2018-06-27T02:21:40.624Z,42.93
2018-06-27T02:24:11.962Z,55.83
2018-06-27T02:26:42.577Z,48.07
2018-06-27T02:29:13.200Z,46.10
2018-06-27T02:31:43.777Z,43.30
2018-06-27T02:34:14.979Z,45.10
2018-06-27T02:36:45.475Z,46.63
2018-06-27T02:39:16.393Z,51.13
2018-06-27T02:41:46.254Z,51.87
2018-06-27T02:44:16.672Z,55.40
2018-06-27T02:46:48.089Z,56.23
2018-06-27T02:49:18.610Z,56.30
2018-06-27T02:51:49.389Z,51.17
2018-06-27T02:54:20.121Z,52.43
2018-06-27T02:56:50.708Z,49.83
2018-06-27T02:59:20.674Z,47.57
2018-06-27T03:01:51.155Z,45.30
2018-06-27T03:04:21.969Z,45.00
2018-06-27T03:06:52.566Z,44.97
2018-06-27T03:09:23.127Z,43.07
2018-06-27T03:11:53.820Z,43.63
2018-06-27T03:14:24.450Z,43.27
2018-06-27T03:16:55.394Z,43.00
2018-06-27T03:19:25.831Z,43.03
2018-06-27T03:21:56.411Z,43.20
2018-06-27T03:24:26.467Z,43.07
2018-06-27T03:26:58.413Z,43.40
2018-06-27T03:29:29.139Z,43.63
2018-06-27T03:31:59.689Z,43.70
2018-06-27T03:34:30.358Z,43.27
2018-06-27T03:37:00.891Z,44.40
2018-06-27T03:39:31.306Z,45.60
2018-06-27T03:42:01.878Z,47.97
2018-06-27T03:44:31.837Z,49.73
2018-06-27T03:47:02.600Z,49.00
2018-06-27T03:49:32.436Z,46.80
2018-06-27T03:52:02.761Z,47.90
2018-06-27T03:54:33.228Z,44.47
2018-06-27T03:57:03.897Z,40.90
2018-06-27T03:59:34.527Z,39.80
2018-06-27T04:02:05.424Z,37.70
2018-06-27T04:04:35.913Z,37.63
2018-06-27T04:07:06.406Z,36.57
2018-06-27T04:09:36.887Z,39.80
2018-06-27T04:12:07.408Z,41.20
2018-06-27T04:14:37.882Z,43.47
2018-06-27T04:17:08.413Z,48.40
2018-06-27T04:19:39.327Z,57.37
2018-06-27T04:22:09.924Z,67.03
2018-06-27T04:24:41.170Z,68.27
2018-06-27T04:27:11.847Z,67.77
2018-06-27T04:29:42.290Z,71.40
2018-06-27T04:32:13.074Z,71.30
2018-06-27T04:34:43.228Z,69.53
2018-06-27T04:37:13.718Z,61.57
2018-06-27T04:39:44.290Z,55.87
2018-06-27T04:42:14.845Z,52.40
2018-06-27T04:44:45.646Z,53.33
2018-06-27T04:47:15.668Z,53.70
2018-06-27T04:49:46.356Z,53.73
2018-06-27T04:52:16.880Z,53.87
2018-06-27T04:54:47.374Z,56.07
2018-06-27T04:57:19.017Z,55.87
2018-06-27T04:59:49.906Z,59.07
2018-06-27T05:02:20.421Z,60.03
2018-06-27T05:04:51.140Z,65.47
2018-06-27T05:07:21.737Z,60.43
2018-06-27T05:09:52.414Z,59.47
2018-06-27T05:12:23.050Z,55.13
2018-06-27T05:14:53.596Z,54.80
2018-06-27T05:17:24.155Z,60.87
2018-06-27T05:19:54.935Z,56.00
2018-06-27T05:22:26.413Z,55.27
2018-06-27T05:24:57.340Z,53.80
2018-06-27T05:27:28.122Z,54.20
2018-06-27T05:29:58.721Z,54.10
2018-06-27T05:32:28.721Z,56.30
2018-06-27T05:34:59.151Z,55.43
2018-06-27T05:37:29.833Z,71.20
2018-06-27T05:40:00.381Z,60.53
2018-06-27T05:42:30.796Z,56.30
2018-06-27T05:45:01.548Z,53.40
2018-06-27T05:47:32.164Z,55.03
2018-06-27T05:50:02.097Z,54.57
2018-06-27T05:52:32.562Z,52.03
2018-06-27T05:55:07.982Z,50.60
2018-06-27T05:57:40.013Z,49.93
2018-06-27T06:00:12.816Z,50.03
2018-06-27T06:02:43.688Z,53.93
2018-06-27T06:05:14.489Z,53.73
2018-06-27T06:07:45.025Z,54.27
2018-06-27T06:10:15.852Z,53.53
2018-06-27T06:12:46.330Z,54.93
2018-06-27T06:15:17.005Z,58.67
2018-06-27T06:17:47.665Z,57.80
2018-06-27T06:20:18.381Z,55.93
2018-06-27T06:22:48.831Z,59.47
2018-06-27T06:25:19.672Z,57.63
2018-06-27T06:27:50.206Z,56.63
2018-06-27T06:30:20.730Z,54.43
2018-06-27T06:32:51.184Z,54.73
2018-06-27T06:35:21.773Z,51.53
2018-06-27T06:37:52.333Z,41.20
2018-06-27T06:40:23.096Z,35.73
2018-06-27T06:42:53.578Z,35.17
2018-06-27T06:45:24.197Z,32.40
2018-06-27T06:47:55.292Z,28.07
2018-06-27T06:50:25.137Z,27.73
2018-06-27T06:52:56.062Z,28.83
2018-06-27T06:55:26.581Z,31.10
2018-06-27T06:57:57.197Z,31.83
2018-06-27T07:00:27.720Z,26.70
2018-06-27T07:02:57.602Z,26.40
2018-06-27T07:05:27.951Z,36.27
2018-06-27T07:07:57.907Z,28.43
2018-06-27T07:10:29.218Z,26.73
2018-06-27T07:12:59.140Z,29.33
2018-06-27T07:15:29.437Z,32.20
2018-06-27T07:17:59.872Z,35.80
2018-06-27T07:20:29.616Z,37.50
2018-06-27T07:22:59.592Z,42.70
2018-06-27T07:25:29.997Z,57.80
2018-06-27T07:28:00.519Z,36.47
2018-06-27T07:30:31.761Z,29.67
2018-06-27T07:33:01.742Z,30.10
2018-06-27T07:35:32.298Z,30.23
2018-06-27T07:38:02.922Z,35.57
2018-06-27T07:40:36.318Z,34.17
2018-06-27T07:43:06.885Z,31.97
2018-06-27T07:45:37.598Z,35.23
2018-06-27T07:48:08.117Z,32.73
2018-06-27T07:50:38.611Z,36.60
2018-06-27T07:53:10.172Z,33.67
2018-06-27T07:55:40.727Z,37.67
2018-06-27T07:58:11.461Z,32.07
2018-06-27T08:00:42.274Z,38.63
2018-06-27T08:03:12.938Z,35.93
2018-06-27T08:05:43.798Z,38.70
2018-06-27T08:21:14.726Z,27.13
2018-06-27T08:23:45.644Z,25.50
2018-06-27T08:26:16.424Z,27.27
2018-06-27T08:28:47.059Z,28.43
2018-06-27T08:31:17.771Z,27.07
2018-06-27T08:33:48.661Z,26.97
2018-06-27T08:36:19.137Z,29.67
2018-06-27T08:38:49.798Z,32.07
2018-06-27T08:41:20.444Z,31.93
2018-06-27T08:43:51.316Z,29.70
2018-06-27T08:46:22.186Z,28.27
2018-06-27T08:48:52.780Z,30.30
2018-06-27T08:51:23.788Z,32.03
2018-06-27T08:53:53.951Z,31.60
2018-06-27T08:56:24.979Z,31.73
2018-06-27T08:58:55.899Z,30.17
2018-06-27T09:01:26.457Z,34.30
2018-06-27T09:03:57.229Z,31.30
2018-06-27T09:06:27.888Z,29.23
2018-06-27T09:08:58.426Z,26.27
2018-06-27T09:11:29.101Z,25.77
2018-06-27T09:13:59.802Z,26.93
2018-06-27T09:16:30.389Z,40.13
2018-06-27T09:19:01.097Z,29.03
2018-06-27T09:34:32.108Z,35.23
2018-06-27T09:37:03.141Z,32.03
2018-06-27T09:39:33.859Z,31.90
2018-06-27T09:42:04.361Z,31.17
2018-06-27T09:44:35.130Z,29.53
2018-06-27T09:47:05.902Z,29.43
2018-06-27T09:49:36.429Z,24.40
2018-06-27T09:52:07.039Z,26.43
2018-06-27T09:54:40.586Z,28.10
2018-06-27T09:57:13.174Z,23.83
2018-06-27T09:59:44.115Z,20.90
2018-06-27T10:02:14.709Z,19.80
2018-06-27T10:04:45.640Z,20.17
2018-06-27T10:07:16.358Z,18.47
2018-06-27T10:09:47.198Z,17.57
2018-06-27T10:12:18.025Z,18.97
2018-06-27T10:14:48.956Z,17.40
2018-06-27T10:17:19.666Z,16.93
2018-06-27T10:19:50.457Z,17.80
2018-06-27T10:22:20.382Z,17.20
2018-06-27T10:24:50.766Z,17.10
2018-06-27T10:27:21.918Z,21.50
2018-06-27T10:29:53.098Z,16.63
2018-06-27T10:32:23.817Z,18.27
2018-06-27T10:34:54.353Z,17.23
2018-06-27T10:37:25.217Z,18.70
2018-06-27T10:39:55.716Z,19.93
2018-06-27T10:42:26.586Z,19.47
2018-06-27T10:44:57.089Z,20.67
2018-06-27T10:47:27.990Z,21.40
2018-06-27T10:49:58.482Z,24.27
2018-06-27T10:52:29.023Z,22.13
2018-06-27T10:55:00.400Z,19.47
2018-06-27T10:57:31.023Z,21.20
2018-06-27T11:00:01.557Z,21.77
2018-06-27T11:02:32.382Z,19.80
2018-06-27T11:05:03.114Z,18.77
2018-06-27T11:20:33.730Z,21.83
2018-06-27T11:23:04.369Z,20.57
2018-06-27T11:25:35.098Z,20.97
2018-06-27T11:28:05.676Z,21.20
2018-06-27T11:30:36.271Z,21.17
2018-06-27T11:33:06.893Z,20.93
2018-06-27T11:35:37.414Z,20.37
2018-06-27T11:38:07.913Z,19.73
2018-06-27T11:40:38.927Z,20.87
2018-06-27T11:43:09.522Z,20.40
2018-06-27T11:45:40.107Z,22.17
2018-06-27T11:48:10.998Z,22.10
2018-06-27T11:50:41.619Z,22.17
2018-06-27T11:53:12.193Z,23.07
2018-06-27T11:55:43.205Z,22.30
2018-06-27T11:58:13.824Z,22.70
2018-06-27T12:00:44.409Z,20.67
2018-06-27T12:03:15.232Z,22.40
2018-06-27T12:05:45.604Z,22.03
2018-06-27T12:08:16.185Z,22.07
2018-06-27T12:10:47.181Z,19.37
2018-06-27T12:13:17.679Z,18.80
2018-06-27T12:15:48.185Z,17.43
2018-06-27T12:18:18.693Z,17.67
2018-06-27T12:20:49.293Z,18.23
2018-06-27T12:23:19.888Z,18.47
2018-06-27T12:25:50.562Z,18.77
2018-06-27T12:28:21.239Z,17.70
2018-06-27T12:30:51.742Z,17.70
2018-06-27T12:33:22.300Z,17.10
2018-06-27T12:35:52.655Z,17.17
2018-06-27T12:38:23.660Z,15.30
2018-06-27T12:40:54.254Z,15.17
2018-06-27T12:43:24.377Z,14.47
2018-06-27T12:45:54.173Z,12.40
2018-06-27T12:48:24.809Z,12.03
2018-06-27T12:50:55.672Z,12.03
2018-06-27T12:53:26.389Z,11.97
2018-06-27T12:55:56.905Z,11.93
2018-06-27T12:58:27.654Z,11.57
2018-06-27T13:00:58.085Z,11.37
2018-06-27T13:03:28.971Z,10.63
2018-06-27T13:05:58.920Z,10.33
2018-06-27T13:08:29.566Z,11.37
2018-06-27T13:10:59.490Z,11.60
2018-06-27T13:13:29.901Z,11.20
2018-06-27T13:16:00.042Z,10.30
2018-06-27T13:18:30.466Z,10.00
2018-06-27T13:21:01.019Z,10.27
2018-06-27T13:23:31.489Z,11.40
2018-06-27T13:26:01.648Z,10.47
2018-06-27T13:28:31.548Z,10.93
2018-06-27T13:31:01.997Z,12.00
2018-06-27T13:33:32.690Z,12.17
2018-06-27T13:36:03.274Z,12.47
2018-06-27T13:38:33.921Z,13.57
2018-06-27T13:41:04.699Z,12.77
2018-06-27T13:43:35.789Z,12.87
2018-06-27T13:46:06.470Z,12.17
2018-06-27T13:48:37.038Z,11.63
2018-06-27T13:51:07.921Z,11.90
2018-06-27T13:53:38.515Z,12.80
2018-06-27T13:56:08.393Z,12.67
2018-06-27T13:58:38.380Z,12.40
2018-06-27T14:01:08.672Z,13.47
2018-06-27T14:03:39.278Z,12.13
2018-06-27T14:06:09.866Z,12.20
2018-06-27T14:08:40.428Z,12.80
2018-06-27T14:11:20.467Z,14.03
2018-06-27T14:13:52.253Z,13.80
2018-06-27T14:16:22.875Z,13.03
2018-06-27T14:18:53.494Z,13.53
2018-06-27T14:21:24.179Z,13.20
2018-06-27T14:23:54.778Z,13.17
2018-06-27T14:26:25.320Z,13.57
2018-06-27T14:28:56.119Z,13.37
2018-06-27T14:31:26.595Z,13.73
2018-06-27T14:33:57.220Z,13.90
2018-06-27T14:36:27.786Z,12.77
2018-06-27T14:38:58.213Z,13.50
2018-06-27T14:41:28.747Z,13.87
2018-06-27T14:43:59.211Z,14.23
2018-06-27T14:46:29.961Z,14.73
2018-06-27T14:49:00.569Z,14.00
2018-06-27T14:51:30.756Z,13.63
2018-06-27T14:54:01.202Z,15.03
2018-06-27T14:56:31.793Z,15.13
2018-06-27T14:59:02.402Z,14.73
2018-06-27T15:01:32.657Z,14.97
2018-06-27T15:04:03.061Z,14.67
2018-06-27T15:06:33.644Z,14.20
2018-06-27T15:09:04.377Z,16.43
2018-06-27T15:11:34.989Z,17.37
2018-06-27T15:14:05.657Z,16.73
2018-06-27T15:16:36.588Z,16.77
2018-06-27T15:19:07.105Z,17.07
2018-06-27T15:21:37.939Z,18.00
2018-06-27T15:24:08.794Z,16.80
2018-06-27T15:26:39.363Z,16.93
2018-06-27T15:29:10.415Z,15.80
2018-06-27T15:31:40.883Z,16.73
2018-06-27T15:34:10.933Z,16.20
2018-06-27T15:36:41.517Z,17.37
2018-06-27T15:39:12.268Z,17.00
2018-06-27T15:41:43.095Z,17.00
2018-06-27T15:44:13.845Z,17.80
2018-06-27T15:46:44.294Z,17.20
2018-06-27T15:49:15.245Z,16.90
2018-06-27T15:51:45.852Z,16.37
2018-06-27T15:54:16.649Z,15.10
2018-06-27T15:56:47.405Z,16.83
2018-06-27T15:59:17.953Z,15.93
2018-06-27T16:01:48.502Z,15.73
2018-06-27T16:04:18.981Z,16.17
2018-06-27T16:06:49.549Z,15.83
2018-06-27T16:09:19.935Z,15.93
2018-06-27T16:11:50.570Z,16.13
2018-06-27T16:14:21.356Z,17.00
2018-06-27T16:16:51.911Z,17.03
2018-06-27T16:19:22.376Z,16.57
2018-06-27T16:21:53.005Z,16.83
2018-06-27T16:24:22.866Z,16.60
2018-06-27T16:26:53.285Z,17.67
2018-06-27T16:29:23.976Z,16.70
2018-06-27T16:31:55.005Z,16.93
2018-06-27T16:34:25.517Z,18.27
2018-06-27T16:36:55.465Z,18.27
2018-06-27T16:39:25.825Z,19.00
2018-06-27T16:41:56.543Z,19.03
2018-06-27T16:44:27.075Z,18.80
2018-06-27T16:46:57.634Z,19.33
2018-06-27T16:49:28.156Z,20.10
2018-06-27T16:51:58.976Z,21.47
2018-06-27T16:54:29.523Z,20.50
2018-06-27T16:57:00.387Z,20.13
2018-06-27T16:59:30.451Z,20.70
2018-06-27T17:02:00.834Z,20.80
2018-06-27T17:04:31.341Z,21.03
2018-06-27T17:07:01.808Z,21.10
2018-06-27T17:09:32.552Z,22.67
2018-06-27T17:12:03.085Z,24.77
2018-06-27T17:14:32.930Z,24.37
2018-06-27T17:17:03.274Z,24.07
2018-06-27T17:19:33.843Z,25.43
2018-06-27T17:22:04.721Z,25.17
2018-06-27T17:24:35.520Z,25.97
2018-06-27T17:27:06.282Z,25.43
2018-06-27T17:29:36.673Z,24.57
2018-06-27T17:32:07.270Z,24.63
2018-06-27T17:34:38.353Z,26.33
2018-06-27T17:37:09.441Z,39.23
2018-06-27T17:39:40.995Z,39.27
2018-06-27T17:42:11.687Z,40.03
2018-06-27T17:44:42.253Z,29.30
2018-06-27T17:47:12.458Z,31.60
2018-06-27T17:49:42.857Z,28.13
2018-06-27T17:52:13.404Z,26.20
2018-06-27T17:54:44.146Z,27.57
2018-06-27T17:57:14.962Z,27.30
2018-06-27T17:59:45.559Z,26.70
2018-06-27T18:02:16.119Z,27.37
2018-06-27T18:04:46.558Z,27.43
2018-06-27T18:07:16.954Z,27.30
2018-06-27T18:09:47.531Z,27.43
2018-06-27T18:12:17.349Z,28.00
2018-06-27T18:14:47.943Z,28.93
2018-06-27T18:17:18.431Z,28.40
2018-06-27T18:19:49.372Z,28.37
2018-06-27T18:22:19.946Z,29.80
2018-06-27T18:24:50.993Z,32.40
2018-06-27T18:27:21.566Z,33.40
2018-06-27T18:29:52.361Z,31.50
2018-06-27T18:32:22.977Z,29.90
2018-06-27T18:34:53.640Z,29.17
2018-06-27T18:37:24.196Z,28.83
2018-06-27T18:39:54.609Z,28.07
2018-06-27T18:42:25.269Z,29.27
2018-06-27T18:44:56.045Z,31.07
2018-06-27T18:47:26.726Z,32.97
2018-06-27T18:49:57.134Z,33.53
2018-06-27T18:52:27.745Z,36.30
2018-06-27T18:54:58.795Z,34.93
2018-06-27T18:57:29.508Z,34.93
2018-06-27T19:00:00.131Z,34.80
2018-06-27T19:02:30.664Z,34.37
2018-06-27T19:05:01.062Z,31.50
2018-06-27T19:07:31.640Z,30.43
2018-06-27T19:10:02.353Z,31.37
2018-06-27T19:12:32.939Z,32.13
2018-06-27T19:15:03.757Z,32.20
2018-06-27T19:17:34.303Z,30.87
2018-06-27T19:20:05.502Z,30.67
2018-06-27T19:22:36.048Z,30.10
2018-06-27T19:25:06.712Z,29.83
2018-06-27T19:27:37.250Z,28.83
2018-06-27T19:30:07.648Z,29.63
2018-06-27T19:32:38.059Z,29.43
2018-06-27T19:35:09.071Z,27.33
2018-06-27T19:37:39.728Z,28.67
2018-06-27T19:40:10.359Z,26.70
2018-06-27T19:42:41.466Z,26.83
2018-06-27T19:45:12.141Z,24.43
2018-06-27T19:47:42.597Z,24.03
2018-06-27T20:10:30.452Z,34.97
2018-06-27T20:13:01.366Z,29.97
2018-06-27T20:15:31.894Z,13.10
2018-06-27T20:18:02.461Z,11.97
2018-06-27T20:20:33.488Z,9.50
2018-06-27T20:23:04.307Z,7.93
2018-06-27T20:25:34.970Z,8.83
2018-06-27T20:28:05.504Z,11.07
2018-06-27T20:30:36.277Z,15.00
2018-06-27T20:33:06.778Z,17.67
2018-06-27T20:35:38.328Z,18.90
2018-06-27T20:38:09.108Z,21.37
2018-06-27T20:40:39.744Z,21.73
2018-06-27T20:43:10.406Z,20.13
2018-06-27T20:45:40.927Z,17.40
2018-06-27T20:48:11.579Z,14.27
2018-06-27T20:50:42.118Z,12.03
2018-06-27T20:53:12.697Z,10.47
2018-06-27T20:55:43.189Z,11.97
2018-06-27T20:58:13.716Z,11.80
2018-06-27T21:00:44.322Z,10.27
2018-06-27T21:03:14.949Z,11.00
2018-06-27T21:05:45.729Z,11.20
2018-06-27T21:08:16.200Z,11.50
2018-06-27T21:10:47.425Z,11.80
2018-06-27T21:13:17.856Z,12.27
2018-06-27T21:15:48.561Z,13.87
2018-06-27T21:18:19.128Z,16.23
2018-06-27T21:20:49.061Z,23.43
2018-06-27T21:23:19.496Z,21.30
2018-06-27T21:25:50.100Z,16.80
2018-06-27T21:28:20.698Z,18.03
2018-06-27T21:30:51.131Z,34.37
2018-06-27T21:33:21.633Z,29.03
2018-06-27T21:35:51.523Z,17.13
2018-06-27T21:38:22.123Z,10.87
2018-06-27T21:40:52.825Z,8.77
2018-06-27T21:43:22.690Z,8.50
2018-06-27T21:45:53.495Z,8.23
2018-06-27T21:48:23.897Z,9.07
2018-06-27T21:50:54.441Z,9.80
2018-06-27T21:53:25.017Z,9.07
2018-06-27T21:55:55.433Z,8.60
2018-06-27T21:58:25.927Z,7.97
2018-06-27T22:01:02.778Z,7.90
2018-06-27T22:03:33.481Z,8.53
2018-06-27T22:06:04.114Z,7.93
2018-06-27T22:08:34.766Z,8.00
2018-06-27T22:11:05.388Z,8.37
2018-06-27T22:13:35.802Z,8.80
2018-06-27T22:16:06.498Z,8.20
2018-06-27T22:18:37.004Z,9.50
2018-06-27T22:21:06.900Z,8.97
2018-06-27T22:23:37.226Z,9.13
2018-06-27T22:26:07.790Z,8.43
2018-06-27T22:28:38.267Z,9.10
2018-06-27T22:31:08.839Z,9.77
2018-06-27T22:33:39.770Z,10.53
2018-06-27T22:36:10.294Z,11.53
2018-06-27T22:38:40.961Z,11.80
2018-06-27T22:41:11.438Z,12.90
2018-06-27T22:43:42.007Z,12.20
2018-06-27T22:46:12.457Z,14.67
2018-06-27T22:48:43.006Z,23.03
2018-06-27T22:51:13.593Z,26.07
2018-06-27T22:53:44.633Z,27.37
2018-06-27T22:56:15.478Z,36.00
2018-06-27T22:58:46.076Z,40.13
2018-06-27T23:01:16.034Z,30.93
2018-06-27T23:03:46.483Z,29.00
2018-06-27T23:06:16.498Z,32.10
2018-06-27T23:08:46.882Z,34.43
2018-06-27T23:11:17.323Z,33.47
2018-06-27T23:13:47.297Z,28.77
2018-06-27T23:16:17.838Z,30.27
2018-06-27T23:18:48.346Z,26.03
2018-06-27T23:21:18.962Z,23.80
2018-06-27T23:23:49.432Z,21.93
2018-06-27T23:26:19.832Z,22.50
2018-06-27T23:28:50.446Z,22.83
2018-06-27T23:31:20.896Z,22.80
2018-06-27T23:33:50.811Z,23.70
2018-06-27T23:36:21.172Z,23.73
2018-06-27T23:38:51.653Z,23.03
2018-06-27T23:41:21.507Z,21.57
2018-06-27T23:43:51.201Z,24.73
2018-06-27T23:46:21.509Z,22.43
2018-06-27T23:48:51.398Z,23.70
2018-06-27T23:51:21.980Z,24.30
2018-06-27T23:53:52.528Z,24.40
2018-06-27T23:56:23.569Z,24.50
2018-06-27T23:58:54.288Z,26.33
